createdAt,value
2018-09-30T00:00:03.603Z,0.00
2018-09-30T00:01:03.601Z,0.00
2018-09-30T00:02:03.609Z,0.00
2018-09-30T00:03:03.576Z,0.00
2018-09-30T00:04:03.559Z,0.00
2018-09-30T00:05:03.550Z,0.00
2018-09-30T00:06:03.541Z,0.00
2018-09-30T00:07:03.552Z,0.00
2018-09-30T00:08:03.508Z,0.00
2018-09-30T00:09:03.500Z,0.00
2018-09-30T00:10:03.491Z,0.00
2018-09-30T00:11:03.477Z,0.00
2018-09-30T00:12:03.490Z,0.00
2018-09-30T00:13:03.453Z,0.00
2018-09-30T00:14:03.439Z,0.00
2018-09-30T00:15:03.438Z,0.00
2018-09-30T00:16:03.425Z,0.00
2018-09-30T00:17:03.431Z,0.00
2018-09-30T00:18:03.395Z,0.00
2018-09-30T00:19:03.390Z,0.00
2018-09-30T00:20:03.369Z,0.00
2018-09-30T00:21:03.373Z,0.00
2018-09-30T00:22:03.372Z,0.00
2018-09-30T00:23:03.340Z,0.00
2018-09-30T00:24:03.326Z,0.00
2018-09-30T00:25:03.319Z,0.00
2018-09-30T00:26:03.301Z,0.00
2018-09-30T00:27:03.308Z,0.00
2018-09-30T00:28:03.284Z,0.00
2018-09-30T00:29:03.270Z,0.00
2018-09-30T00:30:03.258Z,0.00
2018-09-30T00:31:03.269Z,0.00
2018-09-30T00:32:03.257Z,0.00
2018-09-30T00:33:03.221Z,0.00
2018-09-30T00:34:03.212Z,0.00
2018-09-30T00:35:03.200Z,0.00
2018-09-30T00:36:03.186Z,0.00
2018-09-30T00:37:03.198Z,0.00
2018-09-30T00:38:03.161Z,0.00
2018-09-30T00:39:03.155Z,0.00
2018-09-30T00:40:03.137Z,0.00
2018-09-30T00:41:03.132Z,0.00
2018-09-30T00:42:03.134Z,0.00
2018-09-30T00:43:03.104Z,0.00
2018-09-30T00:44:03.098Z,0.00
2018-09-30T00:45:03.087Z,0.00
2018-09-30T00:46:03.072Z,0.00
2018-09-30T00:47:03.082Z,0.00
2018-09-30T00:48:03.052Z,0.00
2018-09-30T00:49:03.031Z,0.00
2018-09-30T00:50:03.029Z,0.00
2018-09-30T00:51:03.012Z,0.00
2018-09-30T00:52:03.020Z,0.00
2018-09-30T00:53:02.994Z,0.00
2018-09-30T00:54:02.975Z,0.00
2018-09-30T00:55:02.962Z,0.00
2018-09-30T00:56:02.959Z,0.00
2018-09-30T00:57:02.967Z,0.00
2018-09-30T00:58:02.937Z,0.00
2018-09-30T00:59:02.916Z,0.00
2018-09-30T01:00:02.917Z,0.00
2018-09-30T01:01:02.899Z,0.00
2018-09-30T01:02:02.904Z,0.00
2018-09-30T01:03:02.872Z,0.00
2018-09-30T01:04:02.865Z,0.00
2018-09-30T01:05:02.856Z,0.00
2018-09-30T01:06:02.838Z,0.00
2018-09-30T01:07:02.852Z,0.00
2018-09-30T01:08:02.820Z,0.00
2018-09-30T01:09:02.807Z,0.00
2018-09-30T01:10:02.795Z,0.00
2018-09-30T01:11:02.786Z,0.00
2018-09-30T01:12:02.788Z,0.00
2018-09-30T01:13:02.763Z,0.00
2018-09-30T01:14:02.749Z,0.00
2018-09-30T01:15:02.741Z,0.00
2018-09-30T01:16:02.719Z,0.00
2018-09-30T01:17:02.740Z,0.00
2018-09-30T01:18:02.698Z,0.00
2018-09-30T01:19:02.691Z,0.00
2018-09-30T01:20:02.678Z,0.00
2018-09-30T01:21:02.668Z,0.00
2018-09-30T01:22:02.677Z,0.00
2018-09-30T01:23:02.644Z,0.00
2018-09-30T01:24:02.632Z,0.00
2018-09-30T01:25:02.646Z,0.00
2018-09-30T01:26:02.604Z,0.00
2018-09-30T01:27:02.616Z,0.00
2018-09-30T01:28:02.584Z,0.00
2018-09-30T01:29:02.569Z,0.00
2018-09-30T01:30:02.567Z,0.00
2018-09-30T01:31:02.551Z,0.00
2018-09-30T01:32:02.560Z,0.00
2018-09-30T01:33:02.523Z,0.00
2018-09-30T01:34:02.515Z,0.00
2018-09-30T01:35:02.507Z,0.00
2018-09-30T01:36:02.489Z,0.00
2018-09-30T01:37:02.512Z,0.00
2018-09-30T01:38:02.465Z,0.00
2018-09-30T01:39:02.466Z,0.00
2018-09-30T01:40:02.446Z,0.00
2018-09-30T01:41:02.429Z,0.00
2018-09-30T01:42:02.429Z,0.00
2018-09-30T01:43:02.437Z,0.00
2018-09-30T01:44:02.395Z,0.00
2018-09-30T01:45:02.390Z,0.00
2018-09-30T01:46:02.378Z,0.00
2018-09-30T01:47:02.364Z,0.00
2018-09-30T01:48:02.389Z,0.00
2018-09-30T01:49:02.346Z,0.00
2018-09-30T01:50:02.327Z,0.00
2018-09-30T01:51:02.315Z,0.00
2018-09-30T01:52:02.315Z,0.00
2018-09-30T01:53:02.298Z,0.00
2018-09-30T01:54:02.313Z,0.00
2018-09-30T01:55:02.277Z,0.00
2018-09-30T01:56:02.255Z,0.00
2018-09-30T01:57:02.255Z,0.00
2018-09-30T01:58:02.234Z,0.00
2018-09-30T01:59:02.228Z,0.00
2018-09-30T02:00:02.241Z,0.00
2018-09-30T02:01:02.212Z,0.00
2018-09-30T02:02:02.194Z,0.00
2018-09-30T02:03:02.175Z,0.00
2018-09-30T02:04:02.167Z,0.00
2018-09-30T02:05:02.160Z,0.00
2018-09-30T02:06:02.174Z,0.00
2018-09-30T02:07:02.144Z,0.00
2018-09-30T02:08:02.120Z,0.00
2018-09-30T02:09:02.115Z,0.00
2018-09-30T02:10:02.096Z,0.00
2018-09-30T02:11:02.090Z,0.00
2018-09-30T02:12:02.104Z,0.00
2018-09-30T02:13:02.061Z,0.00
2018-09-30T02:14:02.062Z,0.00
2018-09-30T02:15:02.056Z,0.00
2018-09-30T02:16:02.027Z,0.00
2018-09-30T02:17:02.021Z,0.00
2018-09-30T02:18:02.038Z,0.00
2018-09-30T02:19:01.998Z,0.00
2018-09-30T02:20:01.979Z,0.00
2018-09-30T02:21:01.973Z,0.00
2018-09-30T02:22:01.964Z,0.00
2018-09-30T02:23:01.952Z,0.00
2018-09-30T02:24:02.105Z,0.00
2018-09-30T02:25:01.925Z,0.00
2018-09-30T02:26:01.923Z,0.00
2018-09-30T02:27:01.905Z,0.00
2018-09-30T02:28:01.894Z,0.00
2018-09-30T02:29:01.928Z,0.00
2018-09-30T02:30:01.866Z,0.00
2018-09-30T02:31:01.861Z,0.00
2018-09-30T02:32:01.851Z,0.00
2018-09-30T02:33:01.837Z,0.00
2018-09-30T02:34:01.824Z,0.00
2018-09-30T02:35:01.830Z,0.00
2018-09-30T02:36:01.808Z,0.00
2018-09-30T02:37:01.792Z,0.00
2018-09-30T02:38:01.776Z,0.00
2018-09-30T02:39:01.765Z,0.00
2018-09-30T02:40:01.785Z,0.00
2018-09-30T02:41:01.748Z,0.00
2018-09-30T02:42:01.726Z,0.00
2018-09-30T02:43:01.722Z,0.00
2018-09-30T02:44:01.711Z,0.00
2018-09-30T02:45:01.723Z,0.00
2018-09-30T02:46:01.689Z,0.00
2018-09-30T02:47:01.684Z,0.00
2018-09-30T02:48:01.659Z,0.00
2018-09-30T02:49:01.652Z,0.00
2018-09-30T02:50:01.641Z,0.00
2018-09-30T02:51:01.654Z,0.00
2018-09-30T02:52:01.615Z,0.00
2018-09-30T02:53:01.605Z,0.00
2018-09-30T02:54:01.594Z,0.00
2018-09-30T02:55:01.583Z,0.00
2018-09-30T02:56:01.598Z,0.00
2018-09-30T02:57:01.554Z,0.00
2018-09-30T02:58:01.554Z,0.00
2018-09-30T02:59:01.539Z,0.00
2018-09-30T03:00:01.533Z,0.00
2018-09-30T03:01:01.546Z,0.00
2018-09-30T03:02:01.496Z,0.00
2018-09-30T03:03:01.485Z,0.00
2018-09-30T03:04:01.487Z,0.00
2018-09-30T03:05:01.463Z,0.00
2018-09-30T03:06:01.463Z,0.00
2018-09-30T03:07:01.474Z,0.00
2018-09-30T03:08:01.438Z,0.00
2018-09-30T03:09:01.423Z,0.00
2018-09-30T03:10:01.408Z,0.00
2018-09-30T03:11:01.408Z,0.00
2018-09-30T03:12:01.382Z,0.00
2018-09-30T03:13:01.402Z,0.00
2018-09-30T03:14:01.366Z,0.00
2018-09-30T03:15:01.353Z,0.00
2018-09-30T03:16:01.345Z,0.00
2018-09-30T03:17:01.337Z,0.00
2018-09-30T03:18:01.346Z,0.00
2018-09-30T03:19:01.311Z,0.00
2018-09-30T03:20:01.289Z,0.00
2018-09-30T03:21:01.283Z,0.00
2018-09-30T03:22:01.273Z,0.00
2018-09-30T03:23:01.258Z,0.00
2018-09-30T03:24:01.267Z,0.00
2018-09-30T03:25:01.236Z,0.00
2018-09-30T03:26:01.226Z,0.00
2018-09-30T03:27:01.211Z,0.00
2018-09-30T03:28:01.207Z,0.00
2018-09-30T03:29:01.208Z,0.00
2018-09-30T03:30:01.179Z,0.00
2018-09-30T03:31:01.167Z,0.00
2018-09-30T03:32:01.159Z,0.00
2018-09-30T03:33:01.151Z,0.00
2018-09-30T03:34:01.160Z,0.00
2018-09-30T03:35:01.118Z,0.00
2018-09-30T03:36:01.115Z,0.00
2018-09-30T03:37:01.100Z,0.00
2018-09-30T03:38:01.087Z,0.00
2018-09-30T03:39:01.077Z,0.00
2018-09-30T03:40:01.086Z,0.00
2018-09-30T03:41:01.055Z,0.00
2018-09-30T03:42:01.047Z,0.00
2018-09-30T03:43:01.033Z,0.00
2018-09-30T03:44:01.019Z,0.00
2018-09-30T03:45:01.036Z,0.00
2018-09-30T03:46:00.997Z,0.00
2018-09-30T03:47:00.979Z,0.00
2018-09-30T03:48:00.976Z,0.00
2018-09-30T03:49:00.957Z,0.00
2018-09-30T03:50:00.983Z,0.00
2018-09-30T03:51:00.936Z,0.00
2018-09-30T03:52:00.928Z,0.00
2018-09-30T03:53:00.916Z,0.00
2018-09-30T03:54:00.905Z,0.00
2018-09-30T03:55:00.891Z,0.00
2018-09-30T03:56:00.907Z,0.00
2018-09-30T03:57:00.875Z,0.00
2018-09-30T03:58:00.853Z,0.00
2018-09-30T03:59:00.842Z,0.00
2018-09-30T04:00:00.833Z,0.00
2018-09-30T04:01:00.853Z,0.00
2018-09-30T04:02:00.817Z,0.00
2018-09-30T04:03:00.808Z,0.00
2018-09-30T04:04:00.793Z,0.00
2018-09-30T04:05:00.781Z,0.00
2018-09-30T04:06:00.762Z,0.00
2018-09-30T04:07:00.778Z,0.00
2018-09-30T04:08:00.749Z,0.00
2018-09-30T04:09:00.729Z,0.00
2018-09-30T04:10:00.751Z,0.00
2018-09-30T04:11:00.706Z,0.00
2018-09-30T04:12:00.697Z,0.00
2018-09-30T04:13:00.725Z,0.00
2018-09-30T04:14:00.673Z,0.00
2018-09-30T04:15:00.661Z,0.00
2018-09-30T04:16:00.652Z,0.00
2018-09-30T04:17:00.706Z,0.00
2018-09-30T04:18:00.654Z,0.00
2018-09-30T04:19:00.612Z,0.00
2018-09-30T04:20:00.610Z,0.00
2018-09-30T04:21:00.595Z,0.00
2018-09-30T04:22:00.579Z,0.00
2018-09-30T04:23:00.597Z,0.00
2018-09-30T04:24:00.555Z,0.00
2018-09-30T04:25:00.547Z,0.00
2018-09-30T04:26:00.538Z,0.00
2018-09-30T04:27:00.531Z,0.00
2018-09-30T04:28:00.539Z,0.00
2018-09-30T04:29:00.506Z,0.00
2018-09-30T04:30:00.486Z,0.00
2018-09-30T04:31:00.481Z,0.00
2018-09-30T04:32:00.467Z,0.00
2018-09-30T04:33:00.482Z,0.00
2018-09-30T04:34:00.449Z,0.00
2018-09-30T04:35:00.433Z,0.00
2018-09-30T04:36:00.426Z,0.00
2018-09-30T04:37:00.416Z,0.00
2018-09-30T04:38:00.417Z,0.00
2018-09-30T04:39:00.383Z,0.00
2018-09-30T04:40:00.380Z,0.00
2018-09-30T04:41:00.365Z,0.00
2018-09-30T04:42:00.351Z,0.00
2018-09-30T04:43:00.365Z,0.00
2018-09-30T04:44:00.333Z,0.00
2018-09-30T04:45:00.319Z,0.00
2018-09-30T04:46:00.304Z,0.00
2018-09-30T04:47:00.293Z,0.00
2018-09-30T04:48:00.308Z,0.00
2018-09-30T04:49:00.269Z,0.00
2018-09-30T04:50:00.301Z,0.00
2018-09-30T04:51:00.244Z,0.00
2018-09-30T04:52:00.241Z,0.00
2018-09-30T04:53:00.242Z,0.00
2018-09-30T04:54:00.220Z,4.00
2018-09-30T04:55:00.201Z,0.00
2018-09-30T04:56:00.193Z,0.00
2018-09-30T04:57:00.179Z,4.00
2018-09-30T04:58:00.195Z,0.00
2018-09-30T04:59:00.159Z,4.00
2018-09-30T05:00:00.140Z,4.00
2018-09-30T05:01:00.135Z,4.00
2018-09-30T05:02:00.123Z,8.00
2018-09-30T05:03:00.136Z,12.00
2018-09-30T05:04:00.104Z,8.00
2018-09-30T05:05:00.089Z,12.00
2018-09-30T05:06:00.084Z,12.00
2018-09-30T05:07:00.059Z,16.00
2018-09-30T05:08:00.079Z,24.00
2018-09-30T05:09:00.045Z,24.00
2018-09-30T05:10:00.028Z,32.00
2018-09-30T05:11:00.015Z,36.00
2018-09-30T05:12:00.010Z,44.00
2018-09-30T05:13:00.026Z,56.00
2018-09-30T05:13:59.979Z,60.00
2018-09-30T05:14:59.971Z,72.00
2018-09-30T05:15:59.998Z,88.00
2018-09-30T05:16:59.954Z,104.00
2018-09-30T05:17:59.954Z,120.00
2018-09-30T05:18:59.924Z,136.00
2018-09-30T05:19:59.920Z,152.00
2018-09-30T05:20:59.904Z,176.00
2018-09-30T05:21:59.889Z,204.00
2018-09-30T05:22:59.910Z,228.00
2018-09-30T05:23:59.864Z,260.00
2018-09-30T05:24:59.857Z,288.00
2018-09-30T05:25:59.848Z,324.00
2018-09-30T05:26:59.835Z,360.00
2018-09-30T05:27:59.842Z,400.00
2018-09-30T05:28:59.806Z,440.00
2018-09-30T05:29:59.802Z,484.00
2018-09-30T05:30:59.788Z,532.00
2018-09-30T05:31:59.774Z,580.00
2018-09-30T05:32:59.784Z,628.00
2018-09-30T05:33:59.756Z,680.00
2018-09-30T05:34:59.747Z,732.00
2018-09-30T05:35:59.726Z,788.00
2018-09-30T05:36:59.755Z,844.00
2018-09-30T05:37:59.731Z,896.00
2018-09-30T05:38:59.697Z,952.00
2018-09-30T05:39:59.683Z,1012.00
2018-09-30T05:40:59.674Z,1068.00
2018-09-30T05:41:59.659Z,1128.00
2018-09-30T05:42:59.677Z,1188.00
2018-09-30T05:43:59.632Z,1248.00
2018-09-30T05:44:59.630Z,1308.00
2018-09-30T05:45:59.616Z,1372.00
2018-09-30T05:46:59.601Z,1432.00
2018-09-30T05:47:59.608Z,1492.00
2018-09-30T05:48:59.595Z,1552.00
2018-09-30T05:49:59.564Z,1616.00
2018-09-30T05:50:59.558Z,1676.00
2018-09-30T05:51:59.543Z,1732.00
2018-09-30T05:52:59.556Z,1792.00
2018-09-30T05:53:59.520Z,1852.00
2018-09-30T05:54:59.516Z,1908.00
2018-09-30T05:55:59.496Z,1968.00
2018-09-30T05:56:59.487Z,2028.00
2018-09-30T05:57:59.549Z,2088.00
2018-09-30T05:58:59.466Z,2148.00
2018-09-30T05:59:59.453Z,2200.00
2018-09-30T06:00:59.442Z,2260.00
2018-09-30T06:01:59.435Z,2312.00
2018-09-30T06:02:59.436Z,2368.00
2018-09-30T06:03:59.474Z,2424.00
2018-09-30T06:04:59.391Z,2420.00
2018-09-30T06:05:59.391Z,2476.00
2018-09-30T06:06:59.377Z,2596.00
2018-09-30T06:07:59.381Z,2644.00
2018-09-30T06:08:59.355Z,2700.00
2018-09-30T06:09:59.339Z,2692.00
2018-09-30T06:10:59.323Z,2568.00
2018-09-30T06:11:59.321Z,2800.00
2018-09-30T06:12:59.328Z,2852.00
2018-09-30T06:13:59.426Z,2896.00
2018-09-30T06:14:59.279Z,2952.00
2018-09-30T06:15:59.309Z,2880.00
2018-09-30T06:16:59.262Z,3048.00
2018-09-30T06:17:59.264Z,2416.00
2018-09-30T06:18:59.240Z,3136.00
2018-09-30T06:19:59.220Z,3184.00
2018-09-30T06:20:59.216Z,3304.00
2018-09-30T06:21:59.195Z,3348.00
2018-09-30T06:22:59.211Z,3400.00
2018-09-30T06:23:59.179Z,3444.00
2018-09-30T06:24:59.173Z,3492.00
2018-09-30T06:25:59.153Z,3540.00
2018-09-30T06:26:59.148Z,3584.00
2018-09-30T06:27:59.148Z,3632.00
2018-09-30T06:28:59.119Z,3672.00
2018-09-30T06:29:59.120Z,3716.00
2018-09-30T06:30:59.097Z,3656.00
2018-09-30T06:31:59.141Z,3504.00
2018-09-30T06:32:59.090Z,3848.00
2018-09-30T06:33:59.067Z,3896.00
2018-09-30T06:34:59.046Z,3936.00
2018-09-30T06:35:59.041Z,3980.00
2018-09-30T06:36:59.029Z,4032.00
2018-09-30T06:37:59.035Z,4148.00
2018-09-30T06:38:59.001Z,4340.00
2018-09-30T06:39:58.995Z,4396.00
2018-09-30T06:40:58.986Z,4352.00
2018-09-30T06:41:58.964Z,4336.00
2018-09-30T06:42:58.980Z,4404.00
2018-09-30T06:43:58.944Z,5804.00
2018-09-30T06:44:59.010Z,14036.00
2018-09-30T06:45:58.922Z,21376.00
2018-09-30T06:46:58.916Z,24992.00
2018-09-30T06:47:58.932Z,27712.00
2018-09-30T06:48:58.892Z,28256.00
2018-09-30T06:49:58.871Z,28224.00
2018-09-30T06:50:58.959Z,24832.00
2018-09-30T06:51:58.855Z,23776.00
2018-09-30T06:52:58.862Z,27072.00
2018-09-30T06:53:58.835Z,28224.00
2018-09-30T06:54:58.820Z,30336.00
2018-09-30T06:55:58.804Z,31616.00
2018-09-30T06:56:58.791Z,29440.00
2018-09-30T06:57:58.809Z,27296.00
2018-09-30T06:58:58.775Z,28800.00
2018-09-30T06:59:58.754Z,29824.00
2018-09-30T07:00:58.747Z,28736.00
2018-09-30T07:01:58.737Z,31648.00
2018-09-30T07:02:58.749Z,32320.00
2018-09-30T07:03:58.711Z,34368.00
2018-09-30T07:04:58.815Z,37440.00
2018-09-30T07:05:58.700Z,40128.00
2018-09-30T07:06:58.679Z,38400.00
2018-09-30T07:07:58.686Z,39360.00
2018-09-30T07:08:58.649Z,44640.00
2018-09-30T07:09:58.645Z,42496.00
2018-09-30T07:10:58.702Z,44640.00
2018-09-30T07:11:58.619Z,46176.00
2018-09-30T07:12:58.634Z,41504.00
2018-09-30T07:13:58.594Z,39296.00
2018-09-30T07:14:58.580Z,44576.00
2018-09-30T07:15:58.575Z,46144.00
2018-09-30T07:16:58.575Z,45824.00
2018-09-30T07:17:58.571Z,50304.00
2018-09-30T07:18:58.535Z,49632.00
2018-09-30T07:19:58.530Z,44704.00
2018-09-30T07:20:58.524Z,50176.00
2018-09-30T07:21:58.498Z,62688.00
2018-09-30T07:22:58.516Z,68256.00
2018-09-30T07:23:58.480Z,61664.00
2018-09-30T07:24:58.473Z,61184.00
2018-09-30T07:25:58.451Z,74912.00
2018-09-30T07:26:58.442Z,90368.00
2018-09-30T07:27:58.459Z,89088.00
2018-09-30T07:28:58.417Z,70400.00
2018-09-30T07:29:58.409Z,49024.00
2018-09-30T07:30:58.396Z,40768.00
2018-09-30T07:31:58.391Z,37024.00
2018-09-30T07:32:58.397Z,35136.00
2018-09-30T07:33:58.366Z,34400.00
2018-09-30T07:34:58.349Z,34272.00
2018-09-30T07:35:58.344Z,34240.00
2018-09-30T07:36:58.326Z,32960.00
2018-09-30T07:37:58.343Z,34432.00
2018-09-30T07:38:58.309Z,34816.00
2018-09-30T07:39:58.301Z,33600.00
2018-09-30T07:40:58.278Z,33952.00
2018-09-30T07:41:58.276Z,35936.00
2018-09-30T07:42:58.280Z,36256.00
2018-09-30T07:43:58.249Z,36736.00
2018-09-30T07:44:58.241Z,37568.00
2018-09-30T07:45:58.232Z,38080.00
2018-09-30T07:46:58.216Z,38720.00
2018-09-30T07:47:58.224Z,39744.00
2018-09-30T07:48:58.194Z,39680.00
2018-09-30T07:49:58.181Z,40224.00
2018-09-30T07:50:58.168Z,40832.00
2018-09-30T07:51:58.160Z,40928.00
2018-09-30T07:52:58.165Z,41568.00
2018-09-30T07:53:58.136Z,41440.00
2018-09-30T07:54:58.122Z,41792.00
2018-09-30T07:55:58.106Z,41856.00
2018-09-30T07:56:58.105Z,42080.00
2018-09-30T07:57:58.115Z,41632.00
2018-09-30T07:58:58.074Z,42240.00
2018-09-30T07:59:58.074Z,42432.00
2018-09-30T08:00:58.057Z,42240.00
2018-09-30T08:01:58.049Z,42560.00
2018-09-30T08:02:58.031Z,41792.00
2018-09-30T08:03:58.046Z,42016.00
2018-09-30T08:04:58.015Z,41760.00
2018-09-30T08:05:57.996Z,41376.00
2018-09-30T08:06:57.991Z,41088.00
2018-09-30T08:07:57.977Z,40448.00
2018-09-30T08:08:57.990Z,40096.00
2018-09-30T08:09:57.962Z,39520.00
2018-09-30T08:10:57.945Z,39136.00
2018-09-30T08:11:57.932Z,38560.00
2018-09-30T08:12:57.922Z,38048.00
2018-09-30T08:13:57.912Z,37088.00
2018-09-30T08:14:57.928Z,36896.00
2018-09-30T08:15:57.886Z,36992.00
2018-09-30T08:16:57.977Z,37408.00
2018-09-30T08:17:57.868Z,37056.00
2018-09-30T08:18:57.851Z,36576.00
2018-09-30T08:19:57.849Z,36288.00
2018-09-30T08:20:57.857Z,35680.00
2018-09-30T08:21:57.820Z,35360.00
2018-09-30T08:22:57.809Z,34688.00
2018-09-30T08:23:57.813Z,34432.00
2018-09-30T08:24:57.792Z,33568.00
2018-09-30T08:25:57.794Z,33024.00
2018-09-30T08:26:57.772Z,34816.00
2018-09-30T08:27:57.756Z,44960.00
2018-09-30T08:28:57.743Z,62560.00
2018-09-30T08:29:57.734Z,76640.00
2018-09-30T08:30:57.742Z,82560.00
2018-09-30T08:31:57.715Z,83168.00
2018-09-30T08:32:57.703Z,87264.00
2018-09-30T08:33:57.694Z,89856.00
2018-09-30T08:34:57.676Z,89248.00
2018-09-30T08:35:57.690Z,91072.00
2018-09-30T08:36:57.654Z,89184.00
2018-09-30T08:37:57.645Z,89952.00
2018-09-30T08:38:57.629Z,89600.00
2018-09-30T08:39:57.666Z,87296.00
2018-09-30T08:40:57.628Z,89248.00
2018-09-30T08:41:57.603Z,92160.00
2018-09-30T08:42:57.586Z,92704.00
2018-09-30T08:43:57.633Z,92928.00
2018-09-30T08:44:57.569Z,92608.00
2018-09-30T08:45:57.576Z,92512.00
2018-09-30T08:46:57.549Z,94944.00
2018-09-30T08:47:57.529Z,96224.00
2018-09-30T08:48:57.521Z,98336.00
2018-09-30T08:49:57.508Z,95776.00
2018-09-30T08:50:57.525Z,93664.00
2018-09-30T08:51:57.489Z,93984.00
2018-09-30T08:52:57.481Z,94624.00
2018-09-30T08:53:57.579Z,95520.00
2018-09-30T08:54:57.457Z,97440.00
2018-09-30T08:55:57.526Z,99040.00
2018-09-30T08:56:57.435Z,95936.00
2018-09-30T08:57:57.427Z,98144.00
2018-09-30T08:58:57.418Z,96128.00
2018-09-30T08:59:57.400Z,95360.00
2018-09-30T09:00:57.419Z,96352.00
2018-09-30T09:01:57.378Z,95616.00
2018-09-30T09:02:57.403Z,97600.00
2018-09-30T09:03:57.364Z,94784.00
2018-09-30T09:04:57.349Z,98560.00
2018-09-30T09:05:57.365Z,96768.00
2018-09-30T09:06:57.328Z,97344.00
2018-09-30T09:07:57.318Z,96000.00
2018-09-30T09:08:57.310Z,95232.00
2018-09-30T09:09:57.414Z,96864.00
2018-09-30T09:10:57.310Z,96160.00
2018-09-30T09:11:57.273Z,97312.00
2018-09-30T09:12:57.259Z,98464.00
2018-09-30T09:13:57.258Z,96576.00
2018-09-30T09:14:57.237Z,98944.00
2018-09-30T09:15:57.264Z,98080.00
2018-09-30T09:16:57.226Z,94848.00
2018-09-30T09:17:57.217Z,97632.00
2018-09-30T09:18:57.208Z,95136.00
2018-09-30T09:19:57.194Z,97376.00
2018-09-30T09:20:57.207Z,97984.00
2018-09-30T09:21:57.175Z,98784.00
2018-09-30T09:22:57.161Z,99552.00
2018-09-30T09:23:57.149Z,98016.00
2018-09-30T09:24:57.147Z,96128.00
2018-09-30T09:25:57.156Z,96000.00
2018-09-30T09:26:57.125Z,96864.00
2018-09-30T09:27:57.171Z,95872.00
2018-09-30T09:28:57.099Z,97024.00
2018-09-30T09:29:57.097Z,96128.00
2018-09-30T09:30:57.106Z,97184.00
2018-09-30T09:31:57.071Z,96512.00
2018-09-30T09:32:57.116Z,96928.00
2018-09-30T09:33:57.052Z,97088.00
2018-09-30T09:34:57.077Z,99680.00
2018-09-30T09:35:57.051Z,98848.00
2018-09-30T09:36:57.058Z,99200.00
2018-09-30T09:37:57.010Z,99424.00
2018-09-30T09:38:57.005Z,98624.00
2018-09-30T09:39:56.994Z,99488.00
2018-09-30T09:40:57.002Z,101600.00
2018-09-30T09:41:56.975Z,100992.00
2018-09-30T09:42:56.962Z,100224.00
2018-09-30T09:43:56.954Z,99200.00
2018-09-30T09:44:56.948Z,97536.00
2018-09-30T09:45:56.951Z,97984.00
2018-09-30T09:46:56.972Z,101248.00
2018-09-30T09:47:56.911Z,100352.00
2018-09-30T09:48:56.901Z,104512.00
2018-09-30T09:49:56.894Z,102368.00
2018-09-30T09:50:56.907Z,99840.00
2018-09-30T09:51:56.867Z,98464.00
2018-09-30T09:52:56.853Z,99104.00
2018-09-30T09:53:56.850Z,102528.00
2018-09-30T09:54:56.839Z,100416.00
2018-09-30T09:55:56.843Z,103776.00
2018-09-30T09:56:56.818Z,104320.00
2018-09-30T09:57:56.797Z,104096.00
2018-09-30T09:58:56.858Z,102656.00
2018-09-30T09:59:56.778Z,102304.00
2018-09-30T10:00:56.791Z,7112.00
2018-09-30T10:01:56.758Z,102368.00
2018-09-30T10:02:56.744Z,100672.00
2018-09-30T10:03:56.743Z,101920.00
2018-09-30T10:04:56.756Z,101216.00
2018-09-30T10:05:56.736Z,102560.00
2018-09-30T10:06:56.704Z,104448.00
2018-09-30T10:07:56.694Z,102496.00
2018-09-30T10:08:56.687Z,100704.00
2018-09-30T10:09:56.668Z,101984.00
2018-09-30T10:10:56.678Z,101824.00
2018-09-30T10:11:56.686Z,104768.00
2018-09-30T10:12:56.693Z,104896.00
2018-09-30T10:13:56.626Z,106016.00
2018-09-30T10:14:56.616Z,103168.00
2018-09-30T10:15:56.630Z,105920.00
2018-09-30T10:16:56.598Z,105376.00
2018-09-30T10:17:56.580Z,105824.00
2018-09-30T10:18:56.575Z,105792.00
2018-09-30T10:19:56.556Z,102560.00
2018-09-30T10:20:56.570Z,103584.00
2018-09-30T10:21:56.541Z,105568.00
2018-09-30T10:22:56.529Z,106464.00
2018-09-30T10:23:56.515Z,108960.00
2018-09-30T10:24:56.501Z,107008.00
2018-09-30T10:25:56.522Z,107104.00
2018-09-30T10:26:56.482Z,106880.00
2018-09-30T10:27:56.469Z,106400.00
2018-09-30T10:28:56.466Z,104160.00
2018-09-30T10:29:56.446Z,105280.00
2018-09-30T10:30:56.464Z,104000.00
2018-09-30T10:31:56.428Z,103136.00
2018-09-30T10:32:56.419Z,101344.00
2018-09-30T10:33:56.405Z,104096.00
2018-09-30T10:34:56.396Z,104928.00
2018-09-30T10:35:56.406Z,104384.00
2018-09-30T10:36:56.374Z,109472.00
2018-09-30T10:37:56.412Z,106368.00
2018-09-30T10:38:56.479Z,110368.00
2018-09-30T10:39:56.339Z,107456.00
2018-09-30T10:40:56.369Z,105120.00
2018-09-30T10:41:56.327Z,108768.00
2018-09-30T10:42:56.310Z,107872.00
2018-09-30T10:43:56.308Z,110432.00
2018-09-30T10:44:56.300Z,111392.00
2018-09-30T10:45:56.312Z,108416.00
2018-09-30T10:46:56.281Z,110880.00
2018-09-30T10:47:56.264Z,110176.00
2018-09-30T10:48:56.252Z,108320.00
2018-09-30T10:49:56.251Z,109344.00
2018-09-30T10:50:56.266Z,108480.00
2018-09-30T10:51:56.223Z,110656.00
2018-09-30T10:52:56.214Z,111200.00
2018-09-30T10:53:56.208Z,110144.00
2018-09-30T10:54:56.193Z,110304.00
2018-09-30T10:55:56.208Z,109216.00
2018-09-30T10:56:56.267Z,109696.00
2018-09-30T10:57:56.169Z,110688.00
2018-09-30T10:58:56.152Z,110592.00
2018-09-30T10:59:56.145Z,109312.00
2018-09-30T11:00:56.159Z,109088.00
2018-09-30T11:01:56.161Z,109088.00
2018-09-30T11:02:56.107Z,111328.00
2018-09-30T11:03:56.098Z,114016.00
2018-09-30T11:04:56.342Z,112768.00
2018-09-30T11:05:56.111Z,114304.00
2018-09-30T11:06:56.066Z,111424.00
2018-09-30T11:07:56.057Z,109952.00
2018-09-30T11:08:56.036Z,111936.00
2018-09-30T11:09:56.027Z,111584.00
2018-09-30T11:10:56.032Z,110592.00
2018-09-30T11:11:56.004Z,109056.00
2018-09-30T11:12:55.994Z,108352.00
2018-09-30T11:13:55.976Z,108000.00
2018-09-30T11:14:55.972Z,107712.00
2018-09-30T11:15:56.001Z,105984.00
2018-09-30T11:16:55.971Z,107264.00
2018-09-30T11:17:55.944Z,105472.00
2018-09-30T11:18:55.934Z,106208.00
2018-09-30T11:19:55.914Z,108896.00
2018-09-30T11:20:55.934Z,107232.00
2018-09-30T11:21:55.898Z,105984.00
2018-09-30T11:22:55.891Z,106944.00
2018-09-30T11:23:55.871Z,104128.00
2018-09-30T11:24:55.865Z,103520.00
2018-09-30T11:25:55.857Z,102720.00
2018-09-30T11:26:55.868Z,102752.00
2018-09-30T11:27:55.835Z,101984.00
2018-09-30T11:28:55.819Z,104320.00
2018-09-30T11:29:55.815Z,101472.00
2018-09-30T11:30:55.805Z,103392.00
2018-09-30T11:31:55.891Z,102752.00
2018-09-30T11:32:55.777Z,101760.00
2018-09-30T11:33:55.764Z,101664.00
2018-09-30T11:34:55.760Z,99712.00
2018-09-30T11:35:55.746Z,100864.00
2018-09-30T11:36:55.764Z,99936.00
2018-09-30T11:37:55.724Z,98048.00
2018-09-30T11:38:55.716Z,97568.00
2018-09-30T11:39:55.720Z,98752.00
2018-09-30T11:40:55.695Z,100832.00
2018-09-30T11:41:55.705Z,100800.00
2018-09-30T11:42:55.671Z,99456.00
2018-09-30T11:43:55.662Z,96928.00
2018-09-30T11:44:55.649Z,97728.00
2018-09-30T11:45:55.643Z,97024.00
2018-09-30T11:46:55.646Z,97792.00
2018-09-30T11:47:55.624Z,95424.00
2018-09-30T11:48:55.603Z,95200.00
2018-09-30T11:49:55.602Z,93856.00
2018-09-30T11:50:55.591Z,94080.00
2018-09-30T11:51:55.597Z,95872.00
2018-09-30T11:52:55.563Z,93248.00
2018-09-30T11:53:55.555Z,91872.00
2018-09-30T11:54:55.591Z,89920.00
2018-09-30T11:55:55.619Z,89088.00
2018-09-30T11:56:55.546Z,90560.00
2018-09-30T11:57:55.506Z,88448.00
2018-09-30T11:58:55.499Z,89216.00
2018-09-30T11:59:55.486Z,89504.00
2018-09-30T12:00:55.474Z,91552.00
2018-09-30T12:01:55.493Z,90080.00
2018-09-30T12:02:55.461Z,89536.00
2018-09-30T12:03:55.438Z,87456.00
2018-09-30T12:04:55.438Z,84096.00
2018-09-30T12:05:55.587Z,84992.00
2018-09-30T12:06:56.504Z,84960.00
2018-09-30T12:07:55.406Z,87264.00
2018-09-30T12:08:55.390Z,86592.00
2018-09-30T12:09:55.376Z,88704.00
2018-09-30T12:10:55.365Z,86656.00
2018-09-30T12:11:55.383Z,87744.00
2018-09-30T12:12:55.365Z,84480.00
2018-09-30T12:13:55.334Z,88736.00
2018-09-30T12:14:55.322Z,88640.00
2018-09-30T12:15:55.314Z,90240.00
2018-09-30T12:16:55.330Z,90176.00
2018-09-30T12:17:55.288Z,91968.00
2018-09-30T12:18:56.031Z,91040.00
2018-09-30T12:19:55.275Z,90656.00
2018-09-30T12:20:55.256Z,88064.00